Terminal Aerodrome Forecast
Issued by NWS

Home | Current Version | Previous Version | Text Only | Print | Product List | Glossary On
Versions: 1 2 3 4 5 6 7 8 9 10 11 12 13 14 15 16
253
FTUS46 KLOX 301139
TAFPMD
TAF
KPMD 301139Z 3012/3112 21010KT P6SM SCT150
     FM302100 24018KT P6SM SKC
     FM310500 24009KT P6SM SKC=

USA.gov is the U.S. government's official web portal to all federal, state and local government web resources and services.